createdAt,value
2018-12-19T00:02:32.755Z,12.03
2018-12-19T00:05:05.408Z,12.13
2018-12-19T00:07:40.167Z,11.77
2018-12-19T00:10:14.906Z,12.60
2018-12-19T00:12:47.971Z,11.77
2018-12-19T00:15:23.127Z,11.80
2018-12-19T00:17:57.372Z,11.57
2018-12-19T00:20:27.707Z,11.50
2018-12-19T00:23:00.263Z,11.77
2018-12-19T00:25:35.164Z,11.27
2018-12-19T00:28:12.079Z,10.60
2018-12-19T00:30:46.056Z,11.23
2018-12-19T00:33:22.982Z,10.00
2018-12-19T00:35:58.488Z,11.07
2018-12-19T00:38:31.020Z,11.23
2018-12-19T00:41:03.658Z,11.37
2018-12-19T00:43:33.946Z,10.83
2018-12-19T00:46:08.582Z,11.47
2018-12-19T00:48:45.524Z,11.37
2018-12-19T00:51:18.181Z,10.50
2018-12-19T00:53:52.652Z,11.77
2018-12-19T00:56:28.562Z,11.17
2018-12-19T00:59:01.780Z,11.90
2018-12-19T01:01:34.801Z,11.37
2018-12-19T01:04:04.825Z,11.20
2018-12-19T01:06:37.361Z,11.23
2018-12-19T01:12:14.461Z,11.13
2018-12-19T01:14:46.915Z,11.17
2018-12-19T01:17:20.285Z,11.73
2018-12-19T01:19:50.441Z,12.47
2018-12-19T01:22:26.636Z,11.83
2018-12-19T01:24:59.173Z,10.57
2018-12-19T01:27:34.268Z,11.37
2018-12-19T01:30:07.274Z,11.17
2018-12-19T01:32:37.658Z,10.87
2018-12-19T01:35:22.687Z,12.27
2018-12-19T01:37:55.910Z,12.97
2018-12-19T01:43:23.520Z,10.53
2018-12-19T01:45:58.193Z,11.67
2018-12-19T01:48:31.325Z,11.57
2018-12-19T01:51:04.279Z,11.57
2018-12-19T01:53:38.995Z,11.93
2018-12-19T01:56:13.376Z,11.77
2018-12-19T01:58:45.506Z,11.53
2018-12-19T02:01:16.743Z,11.23
2018-12-19T02:03:52.073Z,11.70
2018-12-19T02:06:27.051Z,11.73
2018-12-19T02:09:03.085Z,10.90
2018-12-19T02:11:33.982Z,11.07
2018-12-19T02:14:09.260Z,12.37
2018-12-19T02:16:41.362Z,11.43
2018-12-19T02:19:16.639Z,11.03
2018-12-19T02:21:47.234Z,11.30
2018-12-19T02:24:23.577Z,11.90
2018-12-19T02:27:04.374Z,11.43
2018-12-19T02:29:37.352Z,11.13
2018-12-19T02:32:09.319Z,12.27
2018-12-19T02:34:41.526Z,11.50
2018-12-19T02:37:12.449Z,12.70
2018-12-19T02:39:47.503Z,12.50
2018-12-19T02:42:21.902Z,11.63
2018-12-19T02:44:56.765Z,11.67
2018-12-19T02:47:31.799Z,11.20
2018-12-19T02:50:08.639Z,11.50
2018-12-19T02:52:42.874Z,11.97
2018-12-19T02:55:11.903Z,11.50
2018-12-19T02:57:45.235Z,11.87
2018-12-19T03:00:26.598Z,11.80
2018-12-19T03:03:05.392Z,10.87
2018-12-19T03:05:36.590Z,12.03
2018-12-19T03:08:08.294Z,12.63
2018-12-19T03:10:43.078Z,11.50
2018-12-19T03:13:12.415Z,12.10
2018-12-19T03:15:47.106Z,12.13
2018-12-19T03:18:22.127Z,12.03
2018-12-19T03:20:52.318Z,12.80
2018-12-19T03:23:24.907Z,11.17
2018-12-19T03:26:00.181Z,11.50
2018-12-19T03:28:36.148Z,12.73
2018-12-19T03:31:11.537Z,12.30
2018-12-19T03:33:46.270Z,11.83
2018-12-19T03:36:19.319Z,12.27
2018-12-19T03:38:56.721Z,12.37
2018-12-19T03:41:31.338Z,12.07
2018-12-19T03:44:05.943Z,11.30
2018-12-19T03:46:51.270Z,11.97
2018-12-19T03:49:26.997Z,11.23
2018-12-19T03:51:57.558Z,11.57
2018-12-19T03:54:33.473Z,11.17
2018-12-19T03:57:08.539Z,11.53
2018-12-19T03:59:50.395Z,11.70
2018-12-19T04:02:25.883Z,11.90
2018-12-19T04:04:55.666Z,11.40
2018-12-19T04:07:31.762Z,11.63
2018-12-19T04:10:02.026Z,11.77
2018-12-19T04:12:33.006Z,11.77
2018-12-19T04:15:08.046Z,11.87
2018-12-19T04:17:37.130Z,12.00
2018-12-19T04:20:11.814Z,11.17
2018-12-19T04:22:47.160Z,11.87
2018-12-19T04:25:22.120Z,11.87
2018-12-19T04:27:58.348Z,11.60
2018-12-19T04:30:31.203Z,11.27
2018-12-19T04:33:13.565Z,12.00
2018-12-19T04:35:47.828Z,10.97
2018-12-19T04:38:22.826Z,11.60
2018-12-19T04:40:57.706Z,11.80
2018-12-19T04:43:31.901Z,11.27
2018-12-19T04:46:02.464Z,11.77
2018-12-19T04:48:37.768Z,11.90
2018-12-19T04:51:10.821Z,12.27
2018-12-19T04:53:46.248Z,11.37
2018-12-19T04:56:20.612Z,11.07
2018-12-19T04:58:49.718Z,11.53
2018-12-19T05:01:22.141Z,12.50
2018-12-19T05:03:57.433Z,12.27
2018-12-19T05:06:29.863Z,10.97
2018-12-19T05:09:04.844Z,10.73
2018-12-19T05:11:34.901Z,11.40
2018-12-19T05:14:08.761Z,13.20
2018-12-19T05:16:41.287Z,11.17
2018-12-19T05:19:18.317Z,11.27
2018-12-19T05:21:51.362Z,11.97
2018-12-19T05:24:29.388Z,12.13
2018-12-19T05:27:03.770Z,11.47
2018-12-19T05:29:32.616Z,11.63
2018-12-19T05:32:04.867Z,12.43
2018-12-19T05:34:41.568Z,11.73
2018-12-19T05:37:15.884Z,12.17
2018-12-19T05:39:48.529Z,11.87
2018-12-19T05:42:23.096Z,11.33
2018-12-19T05:44:57.986Z,11.70
2018-12-19T05:47:35.065Z,11.27
2018-12-19T05:50:08.353Z,11.47
2018-12-19T05:52:40.647Z,11.43
2018-12-19T05:55:22.551Z,11.40
2018-12-19T05:58:01.244Z,11.10
2018-12-19T06:00:34.360Z,11.17
2018-12-19T06:03:14.251Z,11.97
2018-12-19T06:05:55.833Z,10.53
2018-12-19T06:08:26.139Z,12.30
2018-12-19T06:10:59.785Z,11.23
2018-12-19T06:13:33.499Z,10.80
2018-12-19T06:16:08.994Z,11.20
2018-12-19T06:18:50.282Z,12.00
2018-12-19T06:26:58.549Z,11.60
2018-12-19T06:29:39.351Z,10.50
2018-12-19T06:32:13.959Z,10.43
2018-12-19T06:34:43.054Z,11.43
2018-12-19T06:37:17.956Z,11.37
2018-12-19T06:39:52.885Z,11.40
2018-12-19T06:42:26.254Z,10.67
2018-12-19T06:45:01.186Z,10.50
2018-12-19T06:47:34.581Z,16.47
2018-12-19T06:50:09.048Z,12.30
2018-12-19T06:52:43.590Z,12.20
2018-12-19T06:55:16.914Z,10.90
2018-12-19T06:57:52.767Z,10.20
2018-12-19T07:00:28.839Z,9.87
2018-12-19T07:03:06.651Z,10.83
2018-12-19T07:05:41.849Z,10.13
2018-12-19T07:08:16.371Z,11.17
2018-12-19T07:10:49.308Z,12.27
2018-12-19T07:13:32.363Z,10.87
2018-12-19T07:16:06.881Z,10.30
2018-12-19T07:18:42.192Z,10.57
2018-12-19T07:21:14.605Z,11.07
2018-12-19T07:23:49.409Z,11.10
2018-12-19T07:26:26.090Z,9.57
2018-12-19T07:29:03.606Z,10.40
2018-12-19T07:31:37.399Z,10.57
2018-12-19T07:34:15.107Z,9.83
2018-12-19T07:36:50.129Z,9.90
2018-12-19T07:39:27.889Z,10.60
2018-12-19T07:42:02.869Z,11.03
2018-12-19T07:44:37.847Z,11.43
2018-12-19T07:47:19.936Z,9.93
2018-12-19T07:49:52.272Z,10.73
2018-12-19T07:52:27.329Z,10.60
2018-12-19T07:54:59.728Z,10.73
2018-12-19T07:57:35.549Z,11.27
2018-12-19T08:00:08.154Z,11.13
2018-12-19T08:02:37.175Z,10.47
2018-12-19T08:05:09.898Z,12.20
2018-12-19T08:07:40.198Z,12.43
2018-12-19T08:10:12.808Z,10.40
2018-12-19T08:12:47.652Z,11.67
2018-12-19T08:15:16.866Z,11.30
2018-12-19T08:17:49.862Z,11.00
2018-12-19T08:23:09.278Z,10.97
2018-12-19T08:25:42.379Z,11.00
2018-12-19T08:28:18.981Z,11.73
2018-12-19T08:30:54.496Z,10.60
2018-12-19T08:33:30.205Z,11.13
2018-12-19T08:36:04.535Z,10.40
2018-12-19T08:38:39.271Z,10.50
2018-12-19T08:41:23.885Z,10.93
2018-12-19T08:43:58.611Z,15.57
2018-12-19T08:46:33.257Z,12.70
2018-12-19T08:49:03.498Z,13.93
2018-12-19T08:51:36.290Z,13.90
2018-12-19T08:54:06.415Z,13.50
2018-12-19T08:56:41.266Z,14.20
2018-12-19T08:59:16.944Z,14.03
2018-12-19T09:01:50.947Z,13.77
2018-12-19T09:04:26.088Z,13.67
2018-12-19T09:06:59.357Z,14.13
2018-12-19T09:09:29.757Z,13.30
2018-12-19T09:12:04.416Z,13.87
2018-12-19T09:14:38.263Z,14.03
2018-12-19T09:17:18.938Z,14.87
2018-12-19T09:19:50.679Z,14.57
2018-12-19T09:22:23.644Z,14.97
2018-12-19T09:24:54.447Z,14.67
2018-12-19T09:27:26.934Z,13.60
2018-12-19T09:30:14.251Z,14.70
2018-12-19T09:32:43.584Z,14.47
2018-12-19T09:35:19.025Z,15.70
2018-12-19T09:37:51.980Z,14.67
2018-12-19T09:40:21.727Z,16.00
2018-12-19T09:42:57.394Z,15.30
2018-12-19T09:45:32.564Z,15.00
2018-12-19T09:48:01.875Z,15.47
2018-12-19T09:50:41.619Z,15.37
2018-12-19T09:53:16.423Z,15.47
2018-12-19T09:55:57.188Z,15.27
2018-12-19T09:58:29.921Z,14.97
2018-12-19T10:01:13.059Z,14.93
2018-12-19T10:03:49.591Z,15.63
2018-12-19T10:06:22.362Z,15.50
2018-12-19T10:08:57.297Z,15.33
2018-12-19T10:11:32.344Z,16.03
2018-12-19T10:14:04.932Z,14.63
2018-12-19T10:16:40.076Z,15.03
2018-12-19T10:19:14.646Z,14.57
2018-12-19T10:21:47.443Z,16.23
2018-12-19T10:24:26.882Z,15.40
2018-12-19T10:27:06.129Z,14.73
2018-12-19T10:29:38.484Z,15.37
2018-12-19T10:32:12.706Z,15.10
2018-12-19T10:34:47.528Z,15.90
2018-12-19T10:37:16.654Z,15.37
2018-12-19T10:39:50.934Z,15.63
2018-12-19T10:42:26.514Z,16.07
2018-12-19T10:45:02.150Z,15.73
2018-12-19T10:47:35.399Z,14.10
2018-12-19T10:50:10.893Z,14.30
2018-12-19T10:52:43.842Z,14.97
2018-12-19T10:55:23.730Z,15.60
2018-12-19T10:57:58.630Z,16.80
2018-12-19T11:00:36.641Z,16.07
2018-12-19T11:03:14.302Z,16.60
2018-12-19T11:05:57.236Z,15.57
2018-12-19T11:08:26.666Z,15.53
2018-12-19T11:11:01.167Z,15.83
2018-12-19T11:13:35.586Z,15.67
2018-12-19T11:16:04.682Z,14.83
2018-12-19T11:18:33.880Z,15.40
2018-12-19T11:21:15.878Z,15.70
2018-12-19T11:23:54.901Z,15.93
2018-12-19T11:26:24.450Z,15.07
2018-12-19T11:29:03.250Z,15.43
2018-12-19T11:31:39.639Z,14.77
2018-12-19T11:34:13.184Z,16.13
2018-12-19T11:36:42.540Z,16.17
2018-12-19T11:39:17.872Z,16.53
2018-12-19T11:41:57.837Z,14.70
2018-12-19T11:44:32.531Z,15.23
2018-12-19T11:47:05.232Z,16.47
2018-12-19T11:49:37.401Z,16.23
2018-12-19T11:52:12.530Z,15.00
2018-12-19T11:54:49.545Z,14.67
2018-12-19T11:57:21.938Z,15.43
2018-12-19T12:02:54.461Z,24.30
2018-12-19T12:05:28.984Z,16.53
2018-12-19T12:10:56.784Z,15.83
2018-12-19T12:13:25.979Z,16.37
2018-12-19T12:16:00.998Z,18.30
2018-12-19T12:18:34.973Z,17.53
2018-12-19T12:21:07.393Z,17.00
2018-12-19T12:23:47.371Z,17.73
2018-12-19T12:26:22.118Z,16.10
2018-12-19T12:28:51.266Z,14.63
2018-12-19T12:31:21.695Z,15.30
2018-12-19T12:33:56.453Z,16.60
2018-12-19T12:36:25.780Z,15.77
2018-12-19T12:39:06.936Z,16.43
2018-12-19T12:41:39.579Z,15.33
2018-12-19T12:44:19.518Z,15.57
2018-12-19T12:50:04.151Z,16.43
2018-12-19T12:52:39.149Z,16.17
2018-12-19T12:55:17.282Z,16.80
2018-12-19T12:57:51.971Z,15.70
2018-12-19T13:00:25.123Z,16.33
2018-12-19T13:02:58.145Z,16.23
2018-12-19T13:05:30.526Z,16.40
2018-12-19T13:08:06.580Z,16.03
2018-12-19T13:10:50.615Z,16.43
2018-12-19T13:13:28.992Z,15.07
2018-12-19T13:18:51.887Z,16.27
2018-12-19T13:21:25.677Z,15.53
2018-12-19T13:24:04.321Z,16.67
2018-12-19T13:26:40.019Z,16.50
2018-12-19T13:29:13.540Z,17.93
2018-12-19T13:31:48.374Z,17.13
2018-12-19T13:34:23.134Z,16.07
2018-12-19T13:36:58.975Z,16.53
2018-12-19T13:39:31.817Z,17.03
2018-12-19T13:42:05.769Z,18.07
2018-12-19T13:44:40.748Z,17.27
2018-12-19T13:47:22.141Z,17.13
2018-12-19T13:50:05.857Z,17.00
2018-12-19T13:52:42.204Z,17.17
2018-12-19T13:55:18.025Z,17.13
2018-12-19T13:57:47.045Z,18.43
2018-12-19T14:00:21.936Z,18.17
2018-12-19T14:02:50.842Z,18.03
2018-12-19T14:05:25.837Z,18.47
2018-12-19T14:08:07.178Z,18.23
2018-12-19T14:10:46.186Z,16.63
2018-12-19T14:13:19.073Z,16.20
2018-12-19T14:16:00.623Z,16.83
2018-12-19T14:18:32.792Z,16.83
2018-12-19T14:21:09.624Z,17.00
2018-12-19T14:23:39.126Z,17.17
2018-12-19T14:26:18.716Z,18.30
2018-12-19T14:28:53.866Z,17.87
2018-12-19T14:31:33.446Z,17.67
2018-12-19T14:34:08.043Z,18.30
2018-12-19T14:36:40.203Z,17.07
2018-12-19T14:39:12.061Z,16.33
2018-12-19T14:41:44.338Z,17.20
2018-12-19T14:44:18.883Z,17.20
2018-12-19T14:46:49.340Z,17.30
2018-12-19T14:49:29.807Z,18.50
2018-12-19T14:52:04.761Z,17.10
2018-12-19T14:54:37.194Z,16.57
2018-12-19T14:57:16.489Z,16.27
2018-12-19T14:59:51.029Z,15.47
2018-12-19T15:02:20.512Z,15.67
2018-12-19T15:04:53.464Z,15.30
2018-12-19T15:07:28.167Z,16.20
2018-12-19T15:10:15.547Z,14.47
2018-12-19T15:12:51.303Z,15.20
2018-12-19T15:15:23.429Z,15.93
2018-12-19T15:17:57.559Z,15.77
2018-12-19T15:20:30.249Z,16.80
2018-12-19T15:23:02.030Z,16.70
2018-12-19T15:25:34.209Z,16.77
2018-12-19T15:28:04.070Z,16.63
2018-12-19T15:30:33.316Z,17.37
2018-12-19T15:33:16.435Z,16.00
2018-12-19T15:36:02.779Z,16.03
2018-12-19T15:38:38.482Z,16.07
2018-12-19T15:41:12.102Z,15.27
2018-12-19T15:43:52.893Z,15.83
2018-12-19T15:46:25.894Z,15.57
2018-12-19T15:48:54.681Z,15.00
2018-12-19T15:51:29.838Z,15.20
2018-12-19T15:54:02.940Z,15.23
2018-12-19T15:56:39.959Z,14.97
2018-12-19T15:59:10.983Z,14.33
2018-12-19T16:01:47.121Z,14.80
2018-12-19T16:04:27.458Z,16.20
2018-12-19T16:07:03.272Z,15.90
2018-12-19T16:09:39.027Z,16.40
2018-12-19T16:12:14.434Z,16.30
2018-12-19T16:14:56.057Z,16.57
2018-12-19T16:17:30.796Z,15.60
2018-12-19T16:20:06.421Z,15.50
2018-12-19T16:22:41.180Z,15.13
2018-12-19T16:25:16.430Z,15.80
2018-12-19T16:27:51.229Z,14.80
2018-12-19T16:30:26.014Z,14.83
2018-12-19T16:33:03.306Z,14.07
2018-12-19T16:35:44.212Z,11.07
2018-12-19T16:38:23.208Z,10.57
2018-12-19T16:41:04.423Z,10.03
2018-12-19T16:43:36.397Z,9.87
2018-12-19T16:46:09.132Z,9.97
2018-12-19T16:48:47.918Z,10.40
2018-12-19T16:51:24.104Z,9.93
2018-12-19T16:53:59.640Z,10.57
2018-12-19T16:56:34.082Z,9.93
2018-12-19T16:59:10.596Z,8.50
2018-12-19T17:01:47.146Z,9.47
2018-12-19T17:04:22.477Z,8.50
2018-12-19T17:07:12.525Z,9.37
2018-12-19T17:09:45.792Z,8.50
2018-12-19T17:12:21.068Z,8.03
2018-12-19T17:14:54.101Z,5.73
2018-12-19T17:17:24.434Z,8.30
2018-12-19T17:19:53.399Z,8.50
2018-12-19T17:22:22.216Z,8.10
2018-12-19T17:24:51.657Z,9.27
2018-12-19T17:27:21.338Z,8.07
2018-12-19T17:29:59.034Z,5.33
2018-12-19T17:32:29.211Z,6.50
2018-12-19T17:34:58.460Z,6.97
2018-12-19T17:37:34.431Z,4.80
2018-12-19T17:40:15.148Z,5.23
2018-12-19T17:45:51.066Z,5.07
2018-12-19T17:48:20.349Z,4.20
2018-12-19T17:50:50.192Z,4.87
2018-12-19T17:53:22.790Z,5.43
2018-12-19T17:58:35.292Z,5.53
2018-12-19T18:01:11.131Z,5.07
2018-12-19T18:06:34.617Z,4.63
2018-12-19T18:09:14.086Z,5.83
2018-12-19T18:11:50.786Z,5.20
2018-12-19T18:14:26.266Z,5.50
2018-12-19T18:17:07.558Z,5.43
2018-12-19T18:19:48.032Z,5.20
2018-12-19T18:22:25.487Z,5.07
2018-12-19T18:24:56.534Z,5.57
2018-12-19T18:27:29.790Z,5.87
2018-12-19T18:30:05.538Z,6.17
2018-12-19T18:32:44.472Z,5.63
2018-12-19T18:35:19.593Z,6.07
2018-12-19T18:37:54.773Z,5.60
2018-12-19T18:40:34.977Z,5.80
2018-12-19T18:43:04.030Z,6.83
2018-12-19T18:45:37.839Z,6.80
2018-12-19T18:48:23.340Z,6.07
2018-12-19T18:51:04.215Z,5.80
2018-12-19T18:53:44.784Z,5.80
2018-12-19T18:56:21.738Z,5.87
2018-12-19T18:58:51.360Z,5.83
2018-12-19T19:01:26.287Z,6.33
2018-12-19T19:04:12.693Z,5.87
2018-12-19T19:06:51.633Z,5.63
2018-12-19T19:09:35.350Z,5.73
2018-12-19T19:12:10.054Z,6.23
2018-12-19T19:14:45.434Z,5.40
2018-12-19T19:17:30.294Z,6.13
2018-12-19T19:19:59.580Z,6.73
2018-12-19T19:22:28.642Z,6.90
2018-12-19T19:24:58.606Z,6.50
2018-12-19T19:27:27.810Z,6.13
2018-12-19T19:29:56.890Z,5.77
2018-12-19T19:32:26.016Z,5.37
2018-12-19T19:35:04.173Z,5.53
2018-12-19T19:37:33.857Z,4.90
2018-12-19T19:40:03.271Z,8.17
2018-12-19T19:42:38.194Z,5.00
2018-12-19T19:45:12.998Z,5.53
2018-12-19T19:50:46.803Z,5.63
2018-12-19T19:53:22.177Z,5.13
2018-12-19T19:56:02.726Z,5.50
2018-12-19T19:58:37.020Z,5.37
2018-12-19T20:01:16.056Z,6.07
2018-12-19T20:03:52.236Z,5.97
2018-12-19T20:06:23.052Z,5.73
2018-12-19T20:08:58.146Z,6.87
2018-12-19T20:11:40.214Z,6.30
2018-12-19T20:14:21.682Z,5.40
2018-12-19T20:17:01.719Z,5.50
2018-12-19T20:19:40.986Z,5.90
2018-12-19T20:22:10.140Z,5.77
2018-12-19T20:24:52.110Z,5.97
2018-12-19T20:27:28.818Z,6.07
2018-12-19T20:30:05.006Z,6.13
2018-12-19T20:32:38.053Z,6.07
2018-12-19T20:35:10.265Z,6.37
2018-12-19T20:37:48.957Z,6.97
2018-12-19T20:40:18.011Z,7.23
2018-12-19T20:42:50.931Z,6.40
2018-12-19T20:45:27.992Z,6.67
2018-12-19T20:47:57.427Z,6.90
2018-12-19T20:50:29.413Z,6.70
2018-12-19T20:53:07.084Z,6.73
2018-12-19T20:55:46.523Z,7.23
2018-12-19T20:58:21.518Z,7.30
2018-12-19T21:01:03.702Z,7.50
2018-12-19T21:03:46.328Z,6.70
2018-12-19T21:06:15.292Z,8.10
2018-12-19T21:08:47.807Z,7.63
2018-12-19T21:11:24.478Z,8.17
2018-12-19T21:13:53.587Z,8.50
2018-12-19T21:16:26.968Z,8.73
2018-12-19T21:18:56.533Z,9.03
2018-12-19T21:21:25.730Z,8.90
2018-12-19T21:23:55.852Z,10.00
2018-12-19T21:26:32.961Z,9.30
2018-12-19T21:29:05.973Z,10.30
2018-12-19T21:31:38.607Z,9.37
2018-12-19T21:34:08.936Z,10.53
2018-12-19T21:39:31.487Z,10.77
2018-12-19T21:42:14.542Z,10.70
2018-12-19T21:44:47.928Z,10.37
2018-12-19T21:47:18.979Z,10.50
2018-12-19T21:49:59.436Z,10.97
2018-12-19T21:55:35.960Z,10.83
2018-12-19T21:58:06.264Z,12.23
2018-12-19T22:00:41.339Z,12.53
2018-12-19T22:03:16.490Z,11.07
2018-12-19T22:09:01.012Z,11.40
2018-12-19T22:11:35.613Z,11.33
2018-12-19T22:14:07.884Z,11.60
2018-12-19T22:16:48.811Z,13.13
2018-12-19T22:19:24.247Z,12.53
2018-12-19T22:21:59.379Z,12.33
2018-12-19T22:24:34.676Z,12.30
2018-12-19T22:27:05.539Z,13.00
2018-12-19T22:29:40.560Z,10.93
2018-12-19T22:32:13.722Z,10.63
2018-12-19T22:34:46.589Z,11.70
2018-12-19T22:37:15.632Z,10.73
2018-12-19T22:39:44.972Z,9.30
2018-12-19T22:42:19.967Z,9.47
2018-12-19T22:44:49.191Z,8.90
2018-12-19T22:47:18.379Z,8.93
2018-12-19T22:49:53.415Z,8.73
2018-12-19T22:52:22.423Z,8.07
2018-12-19T22:54:51.676Z,9.47
2018-12-19T22:57:36.954Z,10.40
2018-12-19T23:00:07.027Z,9.33
2018-12-19T23:02:43.849Z,9.77
2018-12-19T23:05:34.641Z,9.93
2018-12-19T23:08:19.171Z,10.90
2018-12-19T23:10:49.191Z,10.80
2018-12-19T23:13:18.634Z,11.57
2018-12-19T23:15:55.626Z,11.33
2018-12-19T23:18:31.365Z,11.27
2018-12-19T23:21:19.605Z,12.40
2018-12-19T23:23:55.504Z,11.97
2018-12-19T23:26:25.452Z,11.57
2018-12-19T23:29:00.920Z,14.03
2018-12-19T23:31:32.369Z,11.80
2018-12-19T23:34:08.459Z,11.47
2018-12-19T23:36:37.852Z,12.77
2018-12-19T23:39:12.486Z,11.93
2018-12-19T23:41:41.460Z,11.30
2018-12-19T23:44:29.600Z,10.87
2018-12-19T23:47:12.917Z,12.00
2018-12-19T23:49:58.079Z,11.70
2018-12-19T23:52:34.232Z,11.33
2018-12-19T23:58:02.236Z,11.37
